Appleton, MN (56208)

4:03 PM CST on February 12, 2016 (GMT -0600)
Appleton Municipal | | Change Station
CLOSE
Current Station
Airport
Location: Appleton,
Elevation: 1017 ft
Nearby Weather Stations
Active Advisory: Winter Storm Watch

Elev 1017 ft 45.23 °N, 96.00 °W | Updated 8 minutes ago

Clear
Clear
7 °F
Feels Like -12 °F
N
17
Wind Variable Wind from NNW
Gusts 23 mph

Today
High -- | Low -- °F
--% Chance of Precip.
Yesterday
High -- | Low -- °F
Precip. -- in
Pressure 30.61 in
Visibility 10.0 miles
Clouds Clear
Windchill -12 °F
Dew Point -2 °F
Humidity 67%
Rainfall 0.00 in
Snow Depth Not available.
7:30 AM 5:46 PM
Waxing Crescent, 24% visible
METAR KAQP 122155Z AUTO 34015G20KT 10SM CLR M14/M19 A3061 RMK AO2
Pressure 30.61 in
Visibility 10.0 miles
Clouds Clear
Windchill -12 °F
Dew Point -2 °F
Humidity 67%
Rainfall 0.00 in
Snow Depth Not available.
7:30 AM 5:46 PM
Waxing Crescent, 24% visible
METAR KAQP 122155Z AUTO 34015G20KT 10SM CLR M14/M19 A3061 RMK AO2

10-Day Weather Forecast

Almanac

Astronomy

Feb. 12, 2016 Rise Set
Actual Time
Civil Twilight
Nautical Twilight
Astronomical Twilight
Moon
Length of Visible Light
Length of Day
Tomorrow will be .
, % of the Moon is Illuminated

Today's Extremes

State Highs State Lows

Community

WunderPhotos

Upload Photos

1,892,411 photos uploaded!

WunderBlog® & News

Nearby

Air Quality

  Air Quality AQ Index Pollutant
Not available.

Snow Depth

Station Depth Elevation

Earthquake Activity

City Distance Mag. Time & Date
Minimum magnitude displayed is 2.5.

Coastal Water Temperatures

Place Temperature

Stations

Nearby Weather Stations

Station Location Temp. Windchill Dew Point Humidity Wind Precip. Elev Updated Type
                   

Watches & Warnings

Winter Storm Watch
Issued: 2:53 PM CST Feb. 12, 2016 – National Weather Service

... Winter Storm Watch in effect from Saturday evening through
Sunday morning...

The National Weather Service in Twin Cities/Chanhassen has issued
a Winter Storm Watch... which is in effect from Saturday evening
through Sunday morning.

* Snow is likely from Saturday evening through Sunday morning.

* Total snow accumulations of 4 to 6 inches are possible.

* Significant reductions in visibility are possible.

* The potential exists for difficult driving conditions.

Precautionary/preparedness actions...

A Winter Storm Watch means there is a potential for significant
snow... sleet... or ice accumulations that may impact travel.
Continue to monitor the latest forecasts.


Rah/spd